Time;durP1;ratioP1;P1;durP2;ratioP2;P2;SDS_P1;SDS_P2;PMS_P1;PMS_P2;Temp;Humidity;BMP_temperature;BMP_pressure;BME280_temperature;BME280_humidity;BME280_pressure;Samples;Min_cycle;Max_cycle;Signal;HPM_P1;HPM_P2
2022/03/05 00:02:20;;;;;;;12.88;6.55;;;;;;;3.03;48.69;100420.53;5112352;28;20073;-62
2022/03/05 00:04:47;;;;;;;11.60;6.22;;;;;;;3.00;48.70;100419.66;5112306;28;20580;-62
2022/03/05 00:07:14;;;;;;;12.10;6.45;;;;;;;2.97;49.12;100414.53;5111947;28;20051;-62
2022/03/05 00:09:40;;;;;;;11.57;6.18;;;;;;;2.96;49.06;100410.19;5112451;28;20051;-61
2022/03/05 00:12:07;;;;;;;11.00;6.20;;;;;;;2.95;49.30;100412.84;5112099;28;20052;-61
2022/03/05 00:14:34;;;;;;;11.82;5.90;;;;;;;2.92;48.65;100416.31;5112041;28;20044;-62
2022/03/05 00:17:01;;;;;;;11.38;6.10;;;;;;;2.91;48.94;100414.59;5112109;28;20134;-61
2022/03/05 00:19:27;;;;;;;10.40;5.40;;;;;;;2.89;49.07;100412.91;5112046;28;20056;-62
2022/03/05 00:21:54;;;;;;;9.50;5.85;;;;;;;2.88;49.48;100404.28;5110800;28;20043;-63
2022/03/05 00:24:21;;;;;;;9.32;5.63;;;;;;;2.87;48.95;100405.13;5110374;28;20075;-61
2022/03/05 00:26:47;;;;;;;11.63;5.53;;;;;;;2.86;49.29;100404.28;5112046;28;20051;-61
2022/03/05 00:29:14;;;;;;;9.27;5.47;;;;;;;2.86;48.85;100406.00;5112084;28;20780;-62
2022/03/05 00:31:40;;;;;;;11.00;6.07;;;;;;;2.84;49.32;100403.44;5111854;28;20096;-61
2022/03/05 00:34:08;;;;;;;11.45;5.25;;;;;;;2.83;48.94;100406.06;5111651;28;20051;-61
2022/03/05 00:36:35;;;;;;;12.90;6.18;;;;;;;2.82;49.07;100407.81;5110288;28;20487;-61
2022/03/05 00:39:02;;;;;;;10.77;5.97;;;;;;;2.80;49.40;100411.31;5111681;28;20527;-64
2022/03/05 00:41:29;;;;;;;11.18;5.72;;;;;;;2.78;49.41;100411.34;5111507;28;20052;-61
2022/03/05 00:43:55;;;;;;;10.15;5.70;;;;;;;2.74;49.04;100407.91;5111155;28;20086;-63
2022/03/05 00:46:22;;;;;;;9.32;5.60;;;;;;;2.73;49.64;100403.59;5111675;28;20083;-61
2022/03/05 00:48:48;;;;;;;9.43;5.18;;;;;;;2.73;48.78;100394.94;5111635;28;20047;-63
2022/03/05 00:51:15;;;;;;;8.27;4.88;;;;;;;2.72;49.57;100407.06;5111401;28;20052;-61
2022/03/05 00:53:41;;;;;;;9.93;5.72;;;;;;;2.72;49.59;100395.81;5111156;28;20063;-62
2022/03/05 00:56:08;;;;;;;9.48;5.07;;;;;;;2.70;49.40;100402.78;5111200;28;20114;-61
2022/03/05 00:58:34;;;;;;;9.35;5.47;;;;;;;2.68;49.48;100402.81;5111617;28;20104;-63
2022/03/05 01:01:01;;;;;;;11.63;5.72;;;;;;;2.67;49.34;100403.69;5111099;28;20040;-62
2022/03/05 01:03:28;;;;;;;10.85;5.50;;;;;;;2.66;48.97;100396.78;5110113;28;20097;-61
2022/03/05 01:05:55;;;;;;;10.60;6.00;;;;;;;2.65;48.80;100402.00;5111099;28;20066;-64
2022/03/05 01:08:22;;;;;;;10.50;5.53;;;;;;;2.63;49.24;100404.59;5111142;28;20051;-63
2022/03/05 01:10:48;;;;;;;9.15;5.35;;;;;;;2.61;49.16;100401.16;5110798;28;20492;-61
2022/03/05 01:13:15;;;;;;;11.02;5.88;;;;;;;2.60;49.18;100402.91;5110758;28;20055;-63
2022/03/05 01:15:42;;;;;;;10.93;5.50;;;;;;;2.57;49.49;100395.16;5110803;28;20121;-62
2022/03/05 01:18:08;;;;;;;9.65;5.15;;;;;;;2.56;49.56;100396.03;5110620;28;20055;-61
2022/03/05 01:20:35;;;;;;;9.30;5.10;;;;;;;2.56;49.76;100393.44;5110397;28;20051;-61
2022/03/05 01:23:01;;;;;;;9.35;5.60;;;;;;;2.54;49.67;100389.97;5110944;28;20070;-62
2022/03/05 01:25:28;;;;;;;12.32;5.53;;;;;;;2.54;49.56;100386.53;5110478;28;20104;-62
2022/03/05 01:27:54;;;;;;;9.95;5.57;;;;;;;2.52;49.45;100383.09;5110710;28;20056;-62
2022/03/05 01:30:21;;;;;;;11.13;5.65;;;;;;;2.48;49.77;100380.53;5110934;28;20403;-61
2022/03/05 01:32:48;;;;;;;10.50;5.60;;;;;;;2.48;49.34;100388.31;5111116;28;20648;-62
2022/03/05 01:35:14;;;;;;;11.35;6.03;;;;;;;2.46;50.09;100382.31;5110759;28;20093;-61
2022/03/05 01:37:41;;;;;;;13.45;6.03;;;;;;;2.44;49.87;100384.03;5110882;28;20051;-60
2022/03/05 01:40:08;;;;;;;11.45;5.95;;;;;;;2.43;49.28;100384.09;5110484;28;20058;-61
2022/03/05 01:42:35;;;;;;;11.63;6.07;;;;;;;2.42;49.88;100383.22;5109358;28;20076;-61
2022/03/05 01:45:02;;;;;;;12.35;6.22;;;;;;;2.41;49.57;100389.31;5110635;28;20081;-64
2022/03/05 01:47:28;;;;;;;12.38;6.07;;;;;;;2.40;49.92;100378.91;5110693;28;20056;-62
2022/03/05 01:49:55;;;;;;;13.07;6.15;;;;;;;2.39;49.89;100383.25;5110554;28;20039;-61
2022/03/05 01:52:22;;;;;;;12.02;6.45;;;;;;;2.37;49.64;100379.81;5110519;28;20096;-64
2022/03/05 01:54:49;;;;;;;12.05;7.00;;;;;;;2.37;49.55;100386.75;5110187;28;20078;-62
2022/03/05 01:57:15;;;;;;;11.93;6.45;;;;;;;2.36;49.76;100379.84;5110742;28;20078;-62
2022/03/05 01:59:43;;;;;;;12.88;6.45;;;;;;;2.34;50.15;100382.44;5109230;28;20044;-62
2022/03/05 02:02:09;;;;;;;15.95;6.43;;;;;;;2.32;49.83;100377.28;5110216;28;20079;-61
2022/03/05 02:04:36;;;;;;;12.40;6.82;;;;;;;2.31;49.97;100390.28;5110545;28;20051;-63
2022/03/05 02:07:03;;;;;;;14.40;7.57;;;;;;;2.28;50.30;100379.94;5110300;28;20533;-63
2022/03/05 02:09:30;;;;;;;14.43;6.85;;;;;;;2.26;49.86;100379.97;5110200;28;20568;-62
2022/03/05 02:11:56;;;;;;;13.35;6.95;;;;;;;2.25;50.09;100377.38;5109084;28;20040;-61
2022/03/05 02:14:23;;;;;;;13.63;7.05;;;;;;;2.24;50.24;100376.50;5110603;28;20051;-62
2022/03/05 02:16:50;;;;;;;16.08;7.38;;;;;;;2.22;50.37;100379.13;5109644;28;20134;-62
2022/03/05 02:19:17;;;;;;;14.45;7.55;;;;;;;2.20;50.03;100375.69;5110202;28;20044;-62
2022/03/05 02:21:47;;;;;;;15.25;7.97;;;;;;;2.18;51.04;100379.19;5110089;28;20044;-62
2022/03/05 02:24:15;;;;;;;14.77;7.22;;;;;;;2.17;50.41;100380.06;5109277;28;20472;-61
2022/03/05 02:26:41;;;;;;;16.98;8.63;;;;;;;2.15;50.36;100374.03;5108906;28;20097;-60
2022/03/05 02:29:08;;;;;;;16.48;8.20;;;;;;;2.14;50.42;100370.59;5110159;28;20051;-61
2022/03/05 02:31:36;;;;;;;17.08;8.43;;;;;;;2.11;50.57;100367.16;5113304;28;20491;-62
2022/03/05 02:34:03;;;;;;;16.52;7.75;;;;;;;2.10;50.52;100363.72;5112637;28;20048;-61
2022/03/05 02:36:30;;;;;;;16.52;7.93;;;;;;;2.09;49.91;100361.97;5114338;28;20108;-60
2022/03/05 02:38:56;;;;;;;20.50;9.32;;;;;;;2.07;50.40;100358.53;5114231;28;20051;-62
2022/03/05 02:41:24;;;;;;;15.90;8.43;;;;;;;2.05;50.23;100368.94;5113613;28;20043;-63
2022/03/05 02:43:50;;;;;;;17.02;9.27;;;;;;;2.04;50.60;100359.44;5112589;28;20144;-61
2022/03/05 02:46:17;;;;;;;18.75;8.23;;;;;;;2.04;50.72;100353.38;5113891;28;20124;-63
2022/03/05 02:48:43;;;;;;;16.67;8.85;;;;;;;2.03;50.67;100352.53;5113777;28;20086;-61
2022/03/05 02:51:10;;;;;;;19.83;9.57;;;;;;;2.01;50.19;100338.69;5113633;28;20051;-61
2022/03/05 02:53:37;;;;;;;21.20;9.15;;;;;;;2.00;50.22;100339.59;5112568;28;20104;-61
2022/03/05 02:56:04;;;;;;;17.83;8.93;;;;;;;2.00;50.71;100341.31;5113882;28;20116;-62
2022/03/05 02:58:30;;;;;;;18.50;8.30;;;;;;;1.99;50.63;100339.59;5112229;28;20043;-61
2022/03/05 03:00:57;;;;;;;17.05;9.10;;;;;;;1.97;50.50;100336.19;5113129;28;20112;-61
2022/03/05 03:03:24;;;;;;;17.70;9.07;;;;;;;1.95;50.19;100334.44;5113523;28;20479;-61
2022/03/05 03:05:51;;;;;;;19.67;9.07;;;;;;;1.94;50.27;100337.91;5113382;28;20051;-61
2022/03/05 03:08:17;;;;;;;18.38;9.40;;;;;;;1.94;50.38;100343.09;5113646;28;20492;-63
2022/03/05 03:10:44;;;;;;;17.00;9.20;;;;;;;1.96;50.38;100337.91;5113349;28;20051;-62
2022/03/05 03:13:10;;;;;;;18.13;8.93;;;;;;;1.94;50.39;100331.84;5113373;28;20423;-62
2022/03/05 03:15:37;;;;;;;18.27;9.60;;;;;;;1.93;50.36;100331.00;5112929;28;20048;-62
2022/03/05 03:18:03;;;;;;;19.42;8.73;;;;;;;1.94;50.68;100326.66;5113160;28;20404;-61
2022/03/05 03:20:30;;;;;;;22.85;9.15;;;;;;;1.93;50.42;100333.59;5113157;28;20051;-61
2022/03/05 03:22:56;;;;;;;20.02;10.05;;;;;;;1.93;50.54;100336.19;5113066;28;20048;-61
2022/03/05 03:25:23;;;;;;;22.70;10.43;;;;;;;1.93;50.95;100336.19;5112971;28;20077;-61
2022/03/05 03:27:50;;;;;;;22.25;9.60;;;;;;;1.93;50.35;100340.53;5113026;28;20051;-62
2022/03/05 03:30:18;;;;;;;19.77;10.25;;;;;;;1.92;50.82;100341.41;5111444;28;20039;-61
2022/03/05 03:32:45;;;;;;;20.67;10.18;;;;;;;1.91;51.23;100344.88;5111929;28;20492;-63
2022/03/05 03:35:14;;;;;;;21.02;10.70;;;;;;;1.91;50.79;100344.88;5112911;28;20043;-62
2022/03/05 03:37:41;;;;;;;22.77;10.80;;;;;;;1.89;50.67;100342.31;5111616;28;20060;-61
2022/03/05 03:40:10;;;;;;;18.30;9.27;;;;;;;1.88;51.02;100343.19;5112617;28;20044;-61
2022/03/05 03:42:37;;;;;;;21.13;10.13;;;;;;;1.88;50.61;100343.19;5110511;28;20048;-61
2022/03/05 03:45:05;;;;;;;18.33;9.65;;;;;;;1.87;51.31;100346.63;5112337;28;20565;-61
2022/03/05 03:47:32;;;;;;;21.08;10.00;;;;;;;1.86;50.67;100347.53;5113102;28;20131;-62
2022/03/05 03:49:59;;;;;;;21.20;9.82;;;;;;;1.84;50.76;100341.50;5112773;28;20079;-63
2022/03/05 03:52:26;;;;;;;20.95;10.48;;;;;;;1.84;51.04;100340.63;5112845;28;20047;-62
2022/03/05 03:54:53;;;;;;;22.08;10.65;;;;;;;1.82;50.81;100346.72;5112395;28;20071;-61
2022/03/05 03:57:20;;;;;;;19.80;10.35;;;;;;;1.80;51.28;100343.25;5112393;28;20059;-62
2022/03/05 03:59:47;;;;;;;21.27;10.38;;;;;;;1.79;51.14;100344.13;5112128;28;20495;-62
2022/03/05 04:02:14;;;;;;;18.48;9.73;;;;;;;1.78;51.14;100341.56;5112498;27;20043;-62
2022/03/05 04:04:41;;;;;;;19.98;10.40;;;;;;;1.76;51.52;100349.34;5112106;28;20052;-62
2022/03/05 04:09:54;;;;;;;19.55;10.15;;;;;;;1.75;50.97;100354.59;5112146;28;20093;-61
2022/03/05 04:12:22;;;;;;;22.40;10.20;;;;;;;1.74;51.28;100347.66;5112095;28;20062;-62
2022/03/05 04:14:49;;;;;;;19.60;10.73;;;;;;;1.74;51.43;100347.66;5110852;28;20097;-61
2022/03/05 04:17:16;;;;;;;20.40;9.98;;;;;;;1.73;51.56;100359.78;5112193;28;20048;-62
2022/03/05 04:19:43;;;;;;;20.75;9.63;;;;;;;1.72;51.38;100362.41;5111999;28;20397;-62
2022/03/05 04:22:10;;;;;;;21.42;9.93;;;;;;;1.70;51.02;100362.41;5111998;28;20077;-60
2022/03/05 04:24:37;;;;;;;20.67;10.13;;;;;;;1.69;50.81;100358.94;5110279;28;20047;-61
2022/03/05 04:27:04;;;;;;;19.08;9.43;;;;;;;1.68;51.35;100361.56;5111918;28;20039;-62
2022/03/05 04:29:31;;;;;;;22.23;10.82;;;;;;;1.66;51.34;100359.00;5111583;28;20047;-63
2022/03/05 04:31:58;;;;;;;23.83;11.00;;;;;;;1.65;51.61;100361.59;5111761;28;20100;-62
2022/03/05 04:34:24;;;;;;;22.90;11.13;;;;;;;1.63;51.46;100364.22;5111222;28;20480;-62
2022/03/05 04:36:51;;;;;;;19.75;9.77;;;;;;;1.63;51.02;100364.22;5111527;28;20476;-61
2022/03/05 04:39:18;;;;;;;20.63;10.55;;;;;;;1.62;51.27;100362.50;5111446;28;20108;-62
2022/03/05 04:41:44;;;;;;;21.58;10.25;;;;;;;1.63;51.55;100360.75;5112064;28;20051;-61
2022/03/05 04:44:10;;;;;;;23.20;10.77;;;;;;;1.62;51.57;100359.91;5111452;28;20071;-62
2022/03/05 04:46:37;;;;;;;23.00;11.23;;;;;;;1.63;51.35;100356.44;5111494;28;20051;-61
2022/03/05 04:49:04;;;;;;;19.10;10.07;;;;;;;1.62;51.63;100359.91;5111452;28;20097;-62
2022/03/05 04:51:31;;;;;;;23.85;11.55;;;;;;;1.62;51.31;100361.63;5111290;28;20450;-61
2022/03/05 04:53:58;;;;;;;25.23;11.18;;;;;;;1.61;51.38;100368.53;5109755;28;20147;-61
2022/03/05 04:56:24;;;;;;;20.20;11.07;;;;;;;1.61;51.55;100358.16;5111429;28;20051;-64
2022/03/05 04:58:51;;;;;;;20.15;10.60;;;;;;;1.61;51.92;100360.75;5111534;28;20051;-61
2022/03/05 05:01:18;;;;;;;25.25;11.18;;;;;;;1.62;51.70;100364.22;5111204;28;20506;-64
2022/03/05 05:03:46;;;;;;;21.00;10.13;;;;;;;1.61;51.94;100365.09;5110824;28;20051;-61
2022/03/05 05:06:13;;;;;;;22.13;10.48;;;;;;;1.60;51.84;100366.84;5109819;28;20047;-61
2022/03/05 05:08:39;;;;;;;22.08;10.43;;;;;;;1.60;51.77;100361.63;5109878;28;20056;-62
2022/03/05 05:11:06;;;;;;;19.90;10.15;;;;;;;1.59;51.82;100359.94;5111082;28;20093;-62
2022/03/05 05:13:32;;;;;;;21.90;10.50;;;;;;;1.59;52.16;100361.66;5110855;28;20059;-62
2022/03/05 05:16:00;;;;;;;22.20;10.82;;;;;;;1.59;51.83;100356.47;5111117;28;20134;-62
2022/03/05 05:18:26;;;;;;;20.38;10.05;;;;;;;1.58;52.43;100349.56;5111189;28;20058;-62
2022/03/05 05:20:53;;;;;;;19.65;10.05;;;;;;;1.57;51.93;100351.28;5110636;28;20104;-61
2022/03/05 05:23:20;;;;;;;19.67;9.63;;;;;;;1.59;52.36;100361.66;5111058;28;20120;-62
2022/03/05 05:25:46;;;;;;;21.60;10.13;;;;;;;1.58;52.49;100359.94;5110801;28;20075;-64
2022/03/05 05:28:13;;;;;;;21.00;10.68;;;;;;;1.57;51.87;100359.06;5110756;28;20055;-62
2022/03/05 05:30:45;;;;;;;20.75;9.80;;;;;;;1.59;52.09;100359.94;5110757;28;20518;-61
2022/03/05 05:33:12;;;;;;;24.48;10.77;;;;;;;1.60;52.48;100361.63;5110929;28;20051;-61
2022/03/05 05:35:38;;;;;;;23.08;10.90;;;;;;;1.59;52.29;100362.53;5110707;28;20055;-64
2022/03/05 05:38:05;;;;;;;20.70;10.13;;;;;;;1.59;52.02;100362.53;5110688;28;20047;-62
2022/03/05 05:40:32;;;;;;;23.52;10.90;;;;;;;1.59;52.26;100367.72;5110548;28;20531;-63
2022/03/05 05:42:58;;;;;;;21.10;10.45;;;;;;;1.60;52.71;100364.25;5110857;28;20047;-62
2022/03/05 05:45:25;;;;;;;23.35;10.50;;;;;;;1.60;52.47;100364.25;5110935;28;20376;-62
2022/03/05 05:47:51;;;;;;;22.08;10.80;;;;;;;1.59;52.48;100359.94;5110579;28;20047;-62
2022/03/05 05:50:18;;;;;;;21.17;10.05;;;;;;;1.60;52.45;100358.22;5110398;28;20465;-62
2022/03/05 05:52:44;;;;;;;20.50;10.75;;;;;;;1.59;52.21;100356.47;5110802;28;20052;-61
2022/03/05 05:55:11;;;;;;;21.85;10.77;;;;;;;1.60;52.42;100359.03;5110496;28;20084;-63
2022/03/05 05:57:37;;;;;;;21.17;10.77;;;;;;;1.59;52.66;100359.06;5110840;28;20071;-62
2022/03/05 06:00:05;;;;;;;21.63;10.85;;;;;;;1.58;52.68;100359.94;5110708;28;20466;-62
2022/03/05 06:02:31;;;;;;;21.25;10.50;;;;;;;1.58;52.30;100363.41;5111071;28;20063;-63
2022/03/05 06:04:58;;;;;;;22.10;10.95;;;;;;;1.56;52.31;100362.53;5110870;28;20073;-62
2022/03/05 06:07:24;;;;;;;20.77;10.55;;;;;;;1.56;52.74;100362.53;5113513;28;20043;-61
2022/03/05 06:09:51;;;;;;;23.92;10.68;;;;;;;1.54;52.71;100369.50;5114618;28;20108;-60
2022/03/05 06:12:17;;;;;;;20.45;11.10;;;;;;;1.54;52.19;100370.34;5114494;28;20043;-62
2022/03/05 06:14:44;;;;;;;24.42;11.25;;;;;;;1.52;52.64;100371.22;5113956;28;20089;-62
2022/03/05 06:17:10;;;;;;;21.02;10.30;;;;;;;1.51;52.40;100373.00;5114162;28;20097;-61
2022/03/05 06:19:38;;;;;;;25.70;12.20;;;;;;;1.51;52.53;100360.00;5114566;28;20439;-63
2022/03/05 06:22:05;;;;;;;21.38;10.73;;;;;;;1.52;52.88;100366.03;5114386;28;20051;-62
2022/03/05 06:24:32;;;;;;;23.92;10.70;;;;;;;1.50;52.60;100363.47;5114163;28;20052;-63
2022/03/05 06:26:58;;;;;;;23.58;11.15;;;;;;;1.51;52.82;100364.34;5114280;28;20047;-61
2022/03/05 06:29:25;;;;;;;22.90;11.77;;;;;;;1.53;52.89;100367.78;5114104;28;20269;-62
2022/03/05 06:31:54;;;;;;;23.77;11.30;;;;;;;1.53;52.83;100362.59;5114839;28;21086;-62
2022/03/05 06:34:20;;;;;;;22.83;10.68;;;;;;;1.53;53.29;100368.63;5112961;28;20043;-62
2022/03/05 06:36:47;;;;;;;19.55;10.30;;;;;;;1.55;53.11;100372.09;5114445;28;20100;-61
2022/03/05 06:39:13;;;;;;;27.92;11.00;;;;;;;1.54;52.74;100372.94;5113777;28;20503;-62
2022/03/05 06:41:40;;;;;;;24.67;11.68;;;;;;;1.56;52.89;100372.94;5114438;28;20082;-63
2022/03/05 06:44:07;;;;;;;23.00;11.13;;;;;;;1.58;53.19;100373.78;5113584;28;20442;-62
2022/03/05 06:46:34;;;;;;;24.58;11.07;;;;;;;1.60;52.86;100386.75;5111914;28;20058;-62
2022/03/05 06:49:00;;;;;;;21.33;10.32;;;;;;;1.59;53.11;100383.28;5113939;28;20097;-63
2022/03/05 06:51:27;;;;;;;24.40;11.30;;;;;;;1.61;53.40;100388.47;5113652;28;20108;-62
2022/03/05 06:53:53;;;;;;;21.65;12.13;;;;;;;1.60;53.21;100394.53;5113219;28;20419;-61
2022/03/05 06:56:20;;;;;;;23.02;10.88;;;;;;;1.60;53.07;100395.38;5113762;28;20056;-62
2022/03/05 06:58:46;;;;;;;22.08;11.05;;;;;;;1.63;53.29;100397.06;5113068;28;20508;-62
2022/03/05 07:01:13;;;;;;;22.08;10.82;;;;;;;1.64;53.57;100391.88;5113013;28;20077;-62
2022/03/05 07:03:40;;;;;;;19.25;10.02;;;;;;;1.66;53.09;100390.16;5113108;28;20055;-62
2022/03/05 07:06:07;;;;;;;23.20;11.10;;;;;;;1.68;53.20;100397.88;5113690;28;20052;-64
2022/03/05 07:08:33;;;;;;;21.05;10.88;;;;;;;1.70;53.43;100398.75;5113684;28;20048;-62
2022/03/05 07:11:00;;;;;;;21.10;11.57;;;;;;;1.73;53.30;100403.06;5113319;28;20048;-61
2022/03/05 07:13:26;;;;;;;21.85;10.98;;;;;;;1.76;53.37;100403.03;5113655;28;20051;-62
2022/03/05 07:15:53;;;;;;;22.67;11.57;;;;;;;1.81;53.45;100398.66;5112806;28;20496;-62
2022/03/05 07:18:20;;;;;;;23.80;10.98;;;;;;;1.84;53.28;100396.03;5112651;28;20091;-62
2022/03/05 07:20:47;;;;;;;21.00;11.30;;;;;;;1.86;53.56;100399.44;5113228;28;20055;-63
2022/03/05 07:23:13;;;;;;;22.08;10.68;;;;;;;1.91;53.11;100407.19;5113151;28;20511;-62
2022/03/05 07:25:40;;;;;;;20.73;11.45;;;;;;;1.93;53.68;100403.72;5111705;28;20044;-62
2022/03/05 07:28:08;;;;;;;22.92;11.18;;;;;;;1.97;53.76;100409.72;5112359;28;20052;-63
2022/03/05 07:30:38;;;;;;;22.77;11.10;;;;;;;2.00;54.34;100409.69;5111281;28;20040;-66
2022/03/05 07:33:12;;;;;;;21.65;11.20;;;;;;;2.06;53.66;100406.19;5112687;28;20389;-62
2022/03/05 07:35:38;;;;;;;22.10;10.93;;;;;;;2.10;53.93;100413.06;5111243;28;20104;-62
2022/03/05 07:38:05;;;;;;;25.10;12.52;;;;;;;2.12;53.35;100411.28;5113084;28;20051;-61
2022/03/05 07:40:31;;;;;;;21.65;11.43;;;;;;;2.16;53.35;100422.50;5112691;28;20047;-62
2022/03/05 07:42:58;;;;;;;21.38;11.15;;;;;;;2.20;53.24;100418.97;5113135;28;20087;-62
2022/03/05 07:45:25;;;;;;;24.40;12.15;;;;;;;2.24;53.82;100423.25;5112569;28;20059;-61
2022/03/05 07:47:51;;;;;;;22.92;11.35;;;;;;;2.28;53.98;100429.31;5112677;27;20112;-61
2022/03/05 07:50:18;;;;;;;23.77;12.48;;;;;;;2.33;53.63;100430.09;5112478;28;20495;-61
2022/03/05 07:52:44;;;;;;;27.73;12.68;;;;;;;2.37;53.37;100429.19;5112326;28;20564;-62
2022/03/05 07:55:11;;;;;;;25.90;12.75;;;;;;;2.42;53.37;100423.91;5112098;28;20491;-60
2022/03/05 07:57:38;;;;;;;21.83;11.90;;;;;;;2.47;53.39;100432.53;5112624;28;20048;-62
2022/03/05 08:00:06;;;;;;;28.67;12.25;;;;;;;2.51;53.37;100428.16;5112487;28;20052;-62
2022/03/05 08:02:47;;;;;;;23.95;11.80;;;;;;;2.56;53.50;100432.41;5112545;28;20049;-61
2022/03/05 08:05:14;;;;;;;25.13;12.18;;;;;;;2.62;54.04;100433.22;5112027;28;20043;-62
2022/03/05 08:07:40;;;;;;;25.25;11.68;;;;;;;2.67;53.47;100436.59;5112395;28;20051;-65
2022/03/05 08:10:10;;;;;;;24.88;12.10;;;;;;;2.71;53.74;100433.97;5110889;28;20544;-61
2022/03/05 08:12:37;;;;;;;21.40;11.75;;;;;;;2.76;53.58;100435.63;5112293;28;20393;-67
2022/03/05 08:15:05;;;;;;;25.98;12.77;;;;;;;2.80;53.45;100435.56;5112006;28;20108;-68
2022/03/05 08:17:31;;;;;;;23.40;11.50;;;;;;;2.85;53.62;100430.31;5110992;28;20052;-66
2022/03/05 08:19:58;;;;;;;27.70;13.05;;;;;;;2.91;53.62;100432.81;5111904;28;20047;-61
2022/03/05 08:22:25;;;;;;;24.33;12.00;;;;;;;2.97;53.77;100434.47;5111886;28;20519;-60
2022/03/05 08:24:52;;;;;;;25.35;13.80;;;;;;;3.03;53.45;100436.13;5111902;28;20262;-60
2022/03/05 08:27:18;;;;;;;24.88;13.30;;;;;;;3.10;53.90;100440.38;5110238;28;20051;-61
2022/03/05 08:29:45;;;;;;;23.00;12.38;;;;;;;3.18;53.21;100442.84;5111673;28;20051;-61
2022/03/05 08:32:12;;;;;;;26.13;13.00;;;;;;;3.23;53.53;100430.63;5110746;28;20120;-62
2022/03/05 08:34:39;;;;;;;26.65;13.68;;;;;;;3.29;53.23;100433.09;5111648;28;20126;-62
2022/03/05 08:37:05;;;;;;;26.00;13.05;;;;;;;3.35;53.15;100434.75;5112166;28;20076;-61
2022/03/05 08:39:32;;;;;;;24.45;13.10;;;;;;;3.39;53.28;100433.81;5111662;28;20097;-63
2022/03/05 08:41:58;;;;;;;25.98;13.25;;;;;;;3.45;53.47;100433.75;5111816;28;20079;-60
2022/03/05 08:44:25;;;;;;;26.13;13.48;;;;;;;3.51;53.19;100425.81;5110096;28;20047;-63
2022/03/05 08:46:51;;;;;;;26.65;13.55;;;;;;;3.57;53.28;100435.28;5111553;28;20092;-61
2022/03/05 08:49:18;;;;;;;26.20;12.80;;;;;;;3.63;53.46;100434.31;5111216;28;20082;-61
2022/03/05 08:51:44;;;;;;;23.08;12.80;;;;;;;3.69;53.52;100436.81;5111568;28;20048;-61
2022/03/05 08:54:11;;;;;;;26.90;13.82;;;;;;;3.76;53.17;100434.94;5110306;28;20101;-64
2022/03/05 08:56:38;;;;;;;26.58;14.05;;;;;;;3.83;53.36;100430.47;5111620;28;20052;-62
2022/03/05 08:59:04;;;;;;;30.92;13.77;;;;;;;3.89;53.39;100431.22;5111369;28;20048;-61
2022/03/05 09:01:31;;;;;;;25.70;14.43;;;;;;;3.98;53.35;100429.34;5111333;28;20052;-61
2022/03/05 09:03:58;;;;;;;23.00;13.55;;;;;;;4.04;52.91;100427.47;5110896;28;20079;-61
2022/03/05 09:06:25;;;;;;;23.52;13.60;;;;;;;4.12;52.96;100427.31;5111531;28;20040;-61
2022/03/05 09:08:52;;;;;;;24.33;13.20;;;;;;;4.18;53.04;100431.56;5110057;28;20068;-61
2022/03/05 09:11:19;;;;;;;30.80;15.00;;;;;;;4.26;52.81;100434.03;5109802;28;20677;-60
2022/03/05 09:13:45;;;;;;;27.75;14.63;;;;;;;4.31;52.77;100432.19;5110738;28;20051;-63
2022/03/05 09:16:12;;;;;;;25.60;13.65;;;;;;;4.40;52.98;100431.13;5110769;28;20082;-62
2022/03/05 09:18:39;;;;;;;22.98;13.00;;;;;;;4.47;52.94;100427.53;5111013;28;20052;-61
2022/03/05 09:21:05;;;;;;;25.50;13.63;;;;;;;4.54;53.08;100425.66;5110767;28;20043;-61
2022/03/05 09:23:33;;;;;;;25.55;13.70;;;;;;;4.62;52.85;100436.78;5110788;28;20075;-61
2022/03/05 09:25:59;;;;;;;22.77;13.63;;;;;;;4.70;52.75;100431.38;5110856;28;20047;-62
2022/03/05 09:28:26;;;;;;;27.17;13.52;;;;;;;4.77;52.37;100427.75;5110788;28;20044;-63
2022/03/05 09:30:53;;;;;;;25.92;14.23;;;;;;;4.83;52.37;100430.22;5110791;28;20537;-60
2022/03/05 09:33:22;;;;;;;29.75;14.95;;;;;;;4.91;52.58;100430.06;5111149;28;20048;-60
2022/03/05 09:35:50;;;;;;;25.30;14.65;;;;;;;5.00;52.66;100434.19;5110906;27;20058;-62
2022/03/05 09:38:17;;;;;;;24.95;14.27;;;;;;;5.07;52.61;100433.19;5109750;28;20052;-61
2022/03/05 09:40:45;;;;;;;26.98;14.70;;;;;;;5.16;52.93;100431.25;5109934;28;20051;-63
2022/03/05 09:43:11;;;;;;;26.70;14.60;;;;;;;5.24;52.51;100436.28;5109449;28;20055;-61
2022/03/05 09:45:39;;;;;;;25.75;14.02;;;;;;;5.32;52.46;100436.97;5110391;28;20048;-62
2022/03/05 09:48:06;;;;;;;26.45;14.80;;;;;;;5.39;52.38;100435.91;5109484;28;20425;-61
2022/03/05 09:50:33;;;;;;;28.55;14.15;;;;;;;5.47;52.57;100422.66;5109059;28;20040;-64
2022/03/05 09:53:00;;;;;;;24.15;14.27;;;;;;;5.56;52.35;100426.78;5110812;28;20052;-62
2022/03/05 09:55:27;;;;;;;25.55;14.68;;;;;;;5.65;52.42;100429.19;5109211;28;20055;-61
2022/03/05 09:57:54;;;;;;;26.38;14.82;;;;;;;5.74;52.43;100431.56;5110462;28;20051;-61
2022/03/05 10:00:20;;;;;;;29.10;15.18;;;;;;;5.84;52.36;100437.38;5110508;28;20120;-62
2022/03/05 10:02:48;;;;;;;24.52;13.80;;;;;;;5.93;52.37;100440.66;5109233;28;20385;-62
2022/03/05 10:05:24;;;;;;;26.80;15.05;;;;;;;6.02;52.38;100443.00;5110463;28;20389;-62
2022/03/05 10:08:15;;;;;;;28.48;14.75;;;;;;;6.10;52.54;100442.84;5110528;28;20050;-61
2022/03/05 10:10:47;;;;;;;26.92;14.63;;;;;;;6.22;52.34;100442.53;5110563;28;20059;-61
2022/03/05 10:13:22;;;;;;;28.05;14.88;;;;;;;6.32;52.25;100437.03;5110553;28;20047;-62
2022/03/05 10:15:54;;;;;;;24.15;14.07;;;;;;;6.42;52.20;100435.84;5108658;28;20043;-62
2022/03/05 10:18:39;;;;;;;28.13;15.70;;;;;;;6.52;52.60;100439.06;5110510;28;20089;-64
2022/03/05 10:21:08;;;;;;;26.90;14.65;;;;;;;6.65;52.07;100440.41;5110008;28;20120;-62
2022/03/05 10:23:37;;;;;;;22.80;14.65;;;;;;;6.74;52.11;100436.69;5110294;28;20043;-61
2022/03/05 10:26:07;;;;;;;25.45;15.07;;;;;;;6.85;51.58;100441.59;5107010;28;20411;-62
2022/03/05 10:28:35;;;;;;;25.40;14.77;;;;;;;6.96;51.94;100441.28;5108886;28;20083;-62
2022/03/05 10:31:10;;;;;;;27.75;14.93;;;;;;;7.07;52.03;100440.94;5108856;28;20087;-61
2022/03/05 10:33:40;;;;;;;23.77;14.52;;;;;;;7.22;51.74;100443.97;5109016;28;20106;-65
2022/03/05 10:36:16;;;;;;;25.98;14.70;;;;;;;7.35;51.90;100434.81;5109849;28;20511;-62
2022/03/05 10:38:57;;;;;;;27.65;14.95;;;;;;;7.48;51.63;100431.78;5109133;28;20051;-61
2022/03/05 10:41:38;;;;;;;25.85;15.00;;;;;;;7.62;51.16;100434.78;5110019;28;20051;-63
2022/03/05 10:44:16;;;;;;;22.25;13.95;;;;;;;7.77;51.61;100429.91;5110132;28;20044;-62
2022/03/05 10:46:42;;;;;;;25.15;14.93;;;;;;;7.92;51.33;100432.03;5110489;28;20461;-62
2022/03/05 10:49:21;;;;;;;27.60;15.48;;;;;;;8.02;51.48;100431.69;5110065;28;20051;-62
2022/03/05 10:51:49;;;;;;;27.02;14.77;;;;;;;8.17;51.05;100436.41;5110848;28;20051;-63
2022/03/05 10:54:29;;;;;;;24.05;14.38;;;;;;;8.28;50.25;100429.91;5112247;28;20373;-64
2022/03/05 10:57:15;;;;;;;24.27;13.98;;;;;;;8.40;50.06;100428.59;5114076;28;20047;-62
2022/03/05 10:59:53;;;;;;;25.13;14.38;;;;;;;8.51;49.54;100429.03;5113476;28;20048;-63
2022/03/05 11:02:22;;;;;;;26.33;15.07;;;;;;;8.63;50.42;100432.16;5112461;28;20105;-63
2022/03/05 11:04:50;;;;;;;26.40;15.10;;;;;;;8.72;50.08;100430.03;5113223;28;20047;-62
2022/03/05 11:07:19;;;;;;;25.33;15.20;;;;;;;8.83;49.77;100423.53;5112703;28;20343;-63
2022/03/05 11:09:49;;;;;;;25.20;15.02;;;;;;;8.93;49.73;100421.41;5113493;28;20547;-64
2022/03/05 11:12:20;;;;;;;22.48;14.98;;;;;;;9.01;49.89;100426.34;5112042;28;20051;-62
2022/03/05 11:14:48;;;;;;;28.65;15.70;;;;;;;9.10;49.47;100425.97;5111337;28;20522;-62
2022/03/05 11:17:14;;;;;;;22.88;14.45;;;;;;;9.20;49.59;100426.47;5112016;28;20056;-62
2022/03/05 11:19:41;;;;;;;27.15;14.80;;;;;;;9.30;49.48;100421.69;5113208;28;20052;-61
2022/03/05 11:22:13;;;;;;;22.77;14.43;;;;;;;9.40;49.20;100425.63;5113605;28;20101;-61
2022/03/05 11:24:42;;;;;;;26.10;15.63;;;;;;;9.52;49.43;100417.25;5113198;28;20108;-61